createdAt,value
2022-10-07T00:01:47.960Z,13.10
2022-10-07T00:05:11.185Z,13.10
2022-10-07T00:08:34.645Z,13.20
2022-10-07T00:11:56.396Z,13.20
2022-10-07T00:15:18.146Z,13.20
2022-10-07T00:18:40.443Z,13.20
2022-10-07T00:22:03.517Z,13.20
2022-10-07T00:25:25.278Z,13.30
2022-10-07T00:28:47.083Z,13.30
2022-10-07T00:32:08.807Z,13.30
2022-10-07T00:35:36.868Z,13.30
2022-10-07T00:39:00.823Z,13.30
2022-10-07T00:42:22.368Z,13.30
2022-10-07T00:45:46.161Z,13.30
2022-10-07T00:49:09.429Z,13.30
2022-10-07T00:52:31.997Z,13.20
2022-10-07T00:55:55.596Z,13.20
2022-10-07T00:59:18.349Z,13.20
2022-10-07T01:02:40.122Z,13.20
2022-10-07T01:06:01.700Z,13.20
2022-10-07T01:09:23.441Z,13.10
2022-10-07T01:12:54.807Z,13.10
2022-10-07T01:16:19.887Z,13.10
2022-10-07T01:19:51.004Z,13.00
2022-10-07T01:23:20.699Z,13.00
2022-10-07T01:26:47.820Z,13.00
2022-10-07T01:30:10.140Z,13.00
2022-10-07T01:33:32.728Z,13.00
2022-10-07T01:36:55.837Z,13.00
2022-10-07T01:40:19.525Z,13.00
2022-10-07T01:43:43.000Z,13.10
2022-10-07T01:47:04.700Z,13.10
2022-10-07T01:50:27.618Z,13.10
2022-10-07T01:53:53.198Z,13.10
2022-10-07T01:57:21.916Z,13.10
2022-10-07T02:00:47.185Z,13.10
2022-10-07T02:04:17.179Z,13.10
2022-10-07T02:07:44.542Z,13.10
2022-10-07T02:11:13.679Z,13.10
2022-10-07T02:14:37.715Z,13.10
2022-10-07T02:18:02.000Z,13.10
2022-10-07T02:21:25.221Z,13.20
2022-10-07T02:24:47.765Z,13.20
2022-10-07T02:28:10.478Z,13.20
2022-10-07T02:31:33.549Z,13.20
2022-10-07T02:34:58.561Z,13.20
2022-10-07T02:38:21.208Z,13.20
2022-10-07T02:41:49.071Z,13.20
2022-10-07T02:45:13.559Z,13.20
2022-10-07T02:48:37.552Z,13.20
2022-10-07T02:52:02.430Z,13.20
2022-10-07T02:55:25.507Z,13.20
2022-10-07T02:58:47.475Z,13.20
2022-10-07T03:02:11.166Z,13.10
2022-10-07T03:05:33.376Z,13.10
2022-10-07T03:08:56.883Z,13.10
2022-10-07T03:12:18.440Z,13.10
2022-10-07T03:15:42.588Z,13.10
2022-10-07T03:19:04.794Z,13.10
2022-10-07T03:22:26.359Z,13.10
2022-10-07T03:25:50.096Z,13.10
2022-10-07T03:29:11.692Z,13.10
2022-10-07T03:32:33.245Z,13.10
2022-10-07T03:35:54.762Z,13.10
2022-10-07T03:39:16.319Z,13.10
2022-10-07T03:42:39.214Z,13.00
2022-10-07T03:46:00.824Z,13.00
2022-10-07T03:49:22.396Z,13.00
2022-10-07T03:52:43.940Z,13.00
2022-10-07T03:56:05.864Z,13.00
2022-10-07T03:59:28.810Z,13.00
2022-10-07T04:02:50.855Z,13.00
2022-10-07T04:06:12.431Z,13.00
2022-10-07T04:09:33.992Z,13.00
2022-10-07T04:12:55.561Z,13.00
2022-10-07T04:16:18.907Z,13.00
2022-10-07T04:19:40.591Z,13.00
2022-10-07T04:23:05.571Z,13.00
2022-10-07T04:26:27.654Z,13.00
2022-10-07T04:29:49.224Z,13.00
2022-10-07T04:33:12.164Z,13.00
2022-10-07T04:36:33.810Z,12.90
2022-10-07T04:40:00.645Z,13.00
2022-10-07T04:43:22.656Z,12.90
2022-10-07T04:46:44.270Z,12.90
2022-10-07T04:50:08.037Z,12.90
2022-10-07T04:53:29.688Z,12.80
2022-10-07T04:56:51.251Z,12.80
2022-10-07T05:00:12.921Z,12.70
2022-10-07T05:03:35.958Z,12.60
2022-10-07T05:06:58.876Z,12.50
2022-10-07T05:10:20.552Z,12.40
2022-10-07T05:13:42.105Z,12.40
2022-10-07T05:17:03.649Z,12.20
2022-10-07T05:20:25.403Z,12.10
2022-10-07T05:23:48.369Z,12.10
2022-10-07T05:27:09.922Z,12.00
2022-10-07T05:30:31.470Z,12.00
2022-10-07T05:33:53.007Z,12.00
2022-10-07T05:37:14.539Z,11.90
2022-10-07T05:40:37.465Z,11.90
2022-10-07T05:43:59.016Z,12.00
2022-10-07T05:47:20.620Z,12.00
2022-10-07T05:50:46.643Z,12.10
2022-10-07T05:54:08.227Z,12.20
2022-10-07T05:57:31.240Z,12.30
2022-10-07T06:00:53.644Z,12.40
2022-10-07T06:04:15.236Z,12.50
2022-10-07T06:07:36.826Z,12.70
2022-10-07T06:11:00.624Z,12.90
2022-10-07T06:14:23.536Z,13.00
2022-10-07T06:17:45.514Z,13.20
2022-10-07T06:21:07.386Z,13.40
2022-10-07T06:24:28.964Z,13.50
2022-10-07T06:27:54.059Z,13.60
2022-10-07T06:31:18.614Z,13.60
2022-10-07T06:34:40.203Z,13.70
2022-10-07T06:38:01.756Z,13.90
2022-10-07T06:41:23.585Z,14.00
2022-10-07T06:44:45.131Z,14.10
2022-10-07T06:48:08.028Z,14.20
2022-10-07T06:51:29.611Z,14.40
2022-10-07T06:54:51.168Z,14.60
2022-10-07T06:58:12.871Z,14.70
2022-10-07T07:01:34.564Z,14.90
2022-10-07T07:04:58.037Z,15.00
2022-10-07T07:08:21.497Z,15.10
2022-10-07T07:11:43.042Z,15.30
2022-10-07T07:15:05.062Z,15.40
2022-10-07T07:18:26.649Z,15.40
2022-10-07T07:21:51.362Z,15.50
2022-10-07T07:25:13.082Z,15.60
2022-10-07T07:28:34.657Z,15.70
2022-10-07T07:31:56.330Z,15.70
2022-10-07T07:35:17.873Z,15.90
2022-10-07T07:38:40.781Z,16.40
2022-10-07T07:42:02.334Z,17.60
2022-10-07T07:45:23.911Z,19.00
2022-10-07T07:48:45.551Z,20.10
2022-10-07T07:52:07.125Z,20.80
2022-10-07T07:55:30.048Z,21.40
2022-10-07T07:58:51.600Z,22.00
2022-10-07T08:02:13.213Z,22.70
2022-10-07T08:05:34.985Z,23.50
2022-10-07T08:08:57.072Z,23.80
2022-10-07T08:12:20.077Z,24.20
2022-10-07T08:15:41.671Z,24.40
2022-10-07T08:19:03.315Z,24.60
2022-10-07T08:22:25.091Z,25.20
2022-10-07T08:25:46.726Z,25.10
2022-10-07T08:29:09.808Z,24.50
2022-10-07T08:32:31.361Z,24.00
2022-10-07T08:35:58.428Z,23.50
2022-10-07T08:39:20.040Z,23.80
2022-10-07T08:42:42.463Z,23.70
2022-10-07T08:46:05.625Z,24.30
2022-10-07T08:49:35.591Z,24.70
2022-10-07T08:52:58.416Z,23.90
2022-10-07T14:21:12.597Z,18.70
2022-10-07T14:24:34.152Z,18.40
2022-10-07T14:28:04.271Z,18.40
2022-10-07T14:31:26.355Z,18.40
2022-10-07T14:34:47.960Z,18.40
2022-10-07T14:38:26.989Z,18.30
2022-10-07T14:41:48.561Z,18.20
2022-10-07T14:45:13.993Z,18.10
2022-10-07T14:48:35.541Z,18.00
2022-10-07T14:51:57.386Z,18.00
2022-10-07T14:55:20.903Z,17.90
2022-10-07T14:58:42.483Z,18.00
2022-10-07T15:02:04.057Z,18.00
2022-10-07T15:05:25.667Z,18.00
2022-10-07T15:08:47.931Z,18.10
2022-10-07T15:12:11.284Z,18.10
2022-10-07T15:15:32.860Z,18.10
2022-10-07T15:18:54.788Z,18.10
2022-10-07T15:22:16.363Z,18.00
2022-10-07T15:25:39.846Z,18.00
2022-10-07T15:29:02.772Z,17.90
2022-10-07T15:32:24.627Z,17.80
2022-10-07T15:35:46.210Z,17.80
2022-10-07T15:39:09.412Z,17.70
2022-10-07T15:42:31.011Z,17.60
2022-10-07T15:45:55.027Z,17.60
2022-10-07T15:49:16.606Z,17.50
2022-10-07T15:52:38.238Z,17.40
2022-10-07T15:55:59.873Z,17.30
2022-10-07T15:59:21.437Z,17.20
2022-10-07T16:02:44.770Z,17.20
2022-10-07T16:06:07.676Z,17.10
2022-10-07T16:09:29.400Z,17.00
2022-10-07T16:12:51.174Z,16.90
2022-10-07T16:16:14.738Z,16.80
2022-10-07T16:19:37.841Z,16.70
2022-10-07T16:22:59.417Z,16.60
2022-10-07T16:26:23.693Z,16.50
2022-10-07T16:29:45.458Z,16.40
2022-10-07T16:33:07.080Z,16.30
2022-10-07T16:36:30.280Z,16.20
2022-10-07T16:39:51.855Z,16.10
2022-10-07T16:43:13.437Z,16.00
2022-10-07T16:46:35.595Z,15.90
2022-10-07T16:49:57.459Z,15.70
2022-10-07T16:53:20.832Z,15.60
2022-10-07T16:56:43.206Z,15.50
2022-10-07T17:00:05.315Z,15.40
2022-10-07T17:03:28.872Z,15.30
2022-10-07T17:06:50.471Z,15.20
2022-10-07T17:10:13.493Z,15.10
2022-10-07T17:13:36.104Z,15.10
2022-10-07T17:16:58.096Z,15.00
2022-10-07T17:20:19.688Z,15.00
2022-10-07T17:23:41.265Z,15.00
2022-10-07T17:27:05.183Z,14.90
2022-10-07T17:30:26.805Z,14.90
2022-10-07T17:33:48.362Z,14.80
2022-10-07T17:37:09.996Z,14.60
2022-10-07T17:40:31.865Z,14.60
2022-10-07T17:43:56.092Z,14.50
2022-10-07T17:47:17.635Z,14.40
2022-10-07T17:50:39.184Z,14.40
2022-10-07T17:54:01.418Z,14.30
2022-10-07T17:57:23.064Z,14.20
2022-10-07T18:00:45.994Z,14.10
2022-10-07T18:04:09.837Z,14.00
2022-10-07T18:07:31.455Z,14.00
2022-10-07T18:10:53.011Z,13.90
2022-10-07T18:14:14.633Z,13.90
2022-10-07T18:17:37.574Z,13.90
2022-10-07T18:21:02.601Z,13.90
2022-10-07T18:24:32.420Z,13.90
2022-10-07T18:27:55.080Z,13.80
2022-10-07T18:31:18.294Z,13.80
2022-10-07T18:34:41.485Z,13.80
2022-10-07T18:38:03.050Z,13.70
2022-10-07T18:41:24.613Z,13.70
2022-10-07T18:44:46.214Z,13.70
2022-10-07T18:48:07.783Z,13.60
2022-10-07T18:51:30.687Z,13.60
2022-10-07T18:54:52.269Z,13.50
2022-10-07T18:58:13.835Z,13.50
2022-10-07T19:01:35.515Z,13.50
2022-10-07T19:04:57.188Z,13.50
2022-10-07T19:08:20.099Z,13.50
2022-10-07T19:11:41.654Z,13.50
2022-10-07T19:15:03.311Z,13.50
2022-10-07T19:18:24.848Z,13.50
2022-10-07T19:21:47.473Z,13.50
2022-10-07T19:25:10.530Z,13.50
2022-10-07T19:28:33.958Z,13.50
2022-10-07T19:31:55.877Z,13.50
2022-10-07T19:35:17.503Z,13.40
2022-10-07T19:38:39.483Z,13.40
2022-10-07T19:42:02.423Z,13.40
2022-10-07T19:45:24.091Z,13.40
2022-10-07T19:48:45.973Z,13.50
2022-10-07T19:52:07.515Z,13.50
2022-10-07T19:55:34.698Z,13.50
2022-10-07T19:58:58.430Z,13.50
2022-10-07T20:02:23.676Z,13.50
2022-10-07T20:05:51.699Z,13.50
2022-10-07T20:09:19.221Z,13.40
2022-10-07T20:12:41.008Z,13.40
2022-10-07T20:16:06.913Z,13.30
2022-10-07T20:19:28.578Z,13.30
2022-10-07T20:22:50.153Z,13.20
2022-10-07T20:26:13.163Z,13.10
2022-10-07T20:29:39.074Z,13.10
2022-10-07T20:33:05.221Z,13.00
2022-10-07T20:36:27.957Z,12.90
2022-10-07T20:39:49.876Z,12.90
2022-10-07T20:43:12.201Z,12.80
2022-10-07T20:46:34.905Z,12.80
2022-10-07T20:49:58.371Z,12.80
2022-10-07T20:53:22.003Z,12.80
2022-10-07T20:56:43.960Z,12.80
2022-10-07T21:00:06.748Z,12.70
2022-10-07T21:03:28.319Z,12.80
2022-10-07T21:06:51.239Z,12.80
2022-10-07T21:10:12.787Z,12.80
2022-10-07T21:13:34.342Z,12.80
2022-10-07T21:16:56.027Z,12.90
2022-10-07T21:20:17.591Z,12.90
2022-10-07T21:23:40.521Z,13.00
2022-10-07T21:27:02.605Z,13.00
2022-10-07T21:30:24.230Z,13.00
2022-10-07T21:33:47.086Z,13.00
2022-10-07T21:37:08.644Z,13.00
2022-10-07T21:40:32.731Z,13.00
2022-10-07T21:43:58.540Z,13.10
2022-10-07T21:47:24.534Z,13.10
2022-10-07T21:50:52.943Z,13.00
2022-10-07T21:54:16.160Z,13.00
2022-10-07T21:57:39.555Z,13.00
2022-10-07T22:01:02.072Z,13.00
2022-10-07T22:04:23.669Z,13.00
2022-10-07T22:07:45.251Z,13.00
2022-10-07T22:11:07.720Z,12.90
2022-10-07T22:14:30.612Z,12.90
2022-10-07T22:17:52.193Z,12.80
2022-10-07T22:21:14.627Z,12.90
2022-10-07T22:24:36.215Z,12.80
2022-10-07T22:27:57.787Z,12.80
2022-10-07T22:31:21.226Z,12.80
2022-10-07T22:34:42.818Z,12.80
2022-10-07T22:38:04.379Z,12.80
2022-10-07T22:41:26.203Z,12.80
2022-10-07T22:44:47.797Z,12.80
2022-10-07T22:48:10.687Z,12.80
2022-10-07T22:51:32.232Z,12.80
2022-10-07T22:54:53.774Z,12.80
2022-10-07T22:58:15.323Z,12.80
2022-10-07T23:01:36.973Z,12.80
2022-10-07T23:04:59.871Z,12.80
2022-10-07T23:08:21.413Z,12.80
2022-10-07T23:11:42.965Z,12.90
2022-10-07T23:15:04.988Z,12.90
2022-10-07T23:18:26.784Z,12.80
2022-10-07T23:21:49.741Z,12.90
2022-10-07T23:25:11.315Z,12.90
2022-10-07T23:28:33.694Z,12.80
2022-10-07T23:31:55.382Z,12.80
2022-10-07T23:35:16.989Z,12.90
2022-10-07T23:38:40.554Z,12.90
2022-10-07T23:42:02.106Z,13.00
2022-10-07T23:45:23.697Z,13.00
2022-10-07T23:48:45.610Z,13.00
2022-10-07T23:52:07.186Z,12.90
2022-10-07T23:55:30.073Z,12.90
2022-10-07T23:58:51.887Z,12.80
